Time;durP1;ratioP1;P1;durP2;ratioP2;P2;SDS_P1;SDS_P2;PMS_P1;PMS_P2;Temp;Humidity;BMP_temperature;BMP_pressure;BME280_temperature;BME280_humidity;BME280_pressure;Samples;Min_cycle;Max_cycle;Signal;HPM_P1;HPM_P2
2021/08/28 00:00:05;;;;;;;5.07;2.40;;;;;;;14.09;75.39;100479.00;4904798;28;116619;-61
2021/08/28 00:02:31;;;;;;;2.33;2.05;;;;;;;14.08;75.09;100482.81;4921588;28;112604;-67
2021/08/28 00:04:57;;;;;;;3.42;2.25;;;;;;;14.09;75.64;100486.34;4922721;28;116269;-61
2021/08/28 00:07:23;;;;;;;3.55;2.50;;;;;;;14.08;75.00;100479.31;4920564;28;125566;-67
2021/08/28 00:09:51;;;;;;;4.38;2.42;;;;;;;14.09;75.24;100486.34;4923461;28;98812;-67
2021/08/28 00:12:17;;;;;;;4.15;2.38;;;;;;;14.06;75.28;100485.00;4911979;28;107292;-67
2021/08/28 00:14:43;;;;;;;4.43;2.63;;;;;;;14.03;75.05;100480.19;4903200;28;118820;-68
2021/08/28 00:17:09;;;;;;;6.30;3.03;;;;;;;14.00;74.99;100480.75;4902741;28;128901;-62
2021/08/28 00:19:35;;;;;;;4.70;2.72;;;;;;;13.95;75.25;100481.63;4903037;28;124726;-67
2021/08/28 00:22:01;;;;;;;4.47;2.92;;;;;;;13.91;75.41;100477.88;4902258;28;126730;-62
2021/08/28 00:24:27;;;;;;;4.93;3.30;;;;;;;13.87;75.50;100471.44;4902529;28;109583;-67
2021/08/28 00:26:54;;;;;;;3.40;2.80;;;;;;;13.85;75.71;100470.09;4900560;28;125515;-67
2021/08/28 00:29:20;;;;;;;3.55;2.67;;;;;;;13.85;75.99;100479.03;4893707;28;125992;-68
2021/08/28 00:31:46;;;;;;;4.95;2.85;;;;;;;13.84;75.91;100484.75;4899822;28;126386;-62
2021/08/28 00:34:12;;;;;;;3.42;2.70;;;;;;;13.81;75.74;100482.59;4904105;28;98057;-67
2021/08/28 00:36:38;;;;;;;6.25;2.95;;;;;;;13.83;76.07;100477.69;4903480;28;100005;-67
2021/08/28 00:39:04;;;;;;;4.63;3.05;;;;;;;13.83;76.01;100475.78;4904266;28;108989;-62
2021/08/28 00:41:30;;;;;;;5.95;2.90;;;;;;;13.84;76.09;100477.41;4919656;28;127237;-61
2021/08/28 00:43:56;;;;;;;3.58;3.17;;;;;;;13.84;76.19;100484.75;4922706;28;117729;-61
2021/08/28 00:46:22;;;;;;;4.40;2.85;;;;;;;13.84;76.01;100480.13;4907453;28;126480;-62
2021/08/28 00:48:48;;;;;;;4.85;3.70;;;;;;;13.84;75.77;100490.97;4906621;28;126022;-62
2021/08/28 00:51:14;;;;;;;7.25;3.50;;;;;;;13.83;75.81;100485.81;4921548;28;127437;-67
2021/08/28 00:53:41;;;;;;;3.38;3.08;;;;;;;13.82;75.97;100478.78;4921931;28;118781;-62
2021/08/28 00:56:08;;;;;;;4.80;2.88;;;;;;;13.82;76.04;100476.88;4918193;28;127792;-61
2021/08/28 00:58:34;;;;;;;4.93;3.50;;;;;;;13.82;75.61;100482.31;4922247;28;128086;-67
2021/08/28 01:01:06;;;;;;;4.75;3.50;;;;;;;13.80;75.86;100489.13;4901551;28;127609;-67
2021/08/28 01:03:33;;;;;;;5.03;3.78;;;;;;;13.81;76.12;100485.31;4922998;28;97816;-62
2021/08/28 01:06:18;;;;;;;5.32;3.33;;;;;;;13.78;75.85;100480.47;4922028;28;98257;-68
2021/08/28 01:08:56;;;;;;;4.90;3.63;;;;;;;13.78;75.92;100492.09;4892205;28;113081;-67
2021/08/28 01:11:45;;;;;;;4.45;3.28;;;;;;;13.74;75.72;100489.16;4891036;28;115949;-63
2021/08/28 01:14:17;;;;;;;5.13;3.55;;;;;;;13.73;76.06;100481.34;4922608;28;97943;-67
2021/08/28 01:16:44;;;;;;;5.30;3.53;;;;;;;13.73;76.18;100484.03;4919875;28;109509;-67
2021/08/28 01:19:23;;;;;;;5.18;3.28;;;;;;;13.73;76.29;100486.75;4919600;28;116269;-61
2021/08/28 01:21:49;;;;;;;4.30;3.05;;;;;;;13.73;76.43;100487.56;4905436;28;98323;-61
2021/08/28 01:24:15;;;;;;;4.28;3.63;;;;;;;13.74;76.68;100491.06;4920046;28;118896;-67
2021/08/28 01:27:00;;;;;;;6.55;4.10;;;;;;;13.72;76.18;100479.72;4902791;28;113458;-61
2021/08/28 01:29:31;;;;;;;5.45;3.72;;;;;;;13.73;76.20;100484.03;4904669;28;98380;-67
2021/08/28 01:31:58;;;;;;;4.13;3.53;;;;;;;13.70;76.43;100485.41;4907813;28;98001;-67
2021/08/28 01:34:24;;;;;;;3.83;3.38;;;;;;;13.72;76.33;100488.66;4920943;28;98113;-67
2021/08/28 01:36:50;;;;;;;4.30;3.88;;;;;;;13.70;76.06;100479.19;4905219;28;128577;-61
2021/08/28 01:39:16;;;;;;;4.22;3.83;;;;;;;13.70;76.26;100485.41;4868905;28;98489;-61
2021/08/28 01:41:48;;;;;;;5.40;3.67;;;;;;;13.68;76.21;100489.53;4883885;28;106395;-68
2021/08/28 01:44:14;;;;;;;4.55;3.53;;;;;;;13.70;76.54;100487.31;4869040;28;98211;-62
2021/08/28 01:46:41;;;;;;;3.83;3.42;;;;;;;13.71;76.39;100489.72;4900111;28;98759;-61
2021/08/28 01:49:08;;;;;;;6.53;3.60;;;;;;;13.69;76.56;100489.22;4885312;28;120937;-62
2021/08/28 01:51:34;;;;;;;5.55;3.30;;;;;;;13.69;76.35;100489.22;4904724;28;114426;-62
2021/08/28 01:54:00;;;;;;;5.03;3.53;;;;;;;13.68;76.38;100489.53;4919103;28;117816;-67
2021/08/28 01:56:26;;;;;;;5.10;3.42;;;;;;;13.66;76.44;100484.38;4921221;28;120320;-62
2021/08/28 01:58:53;;;;;;;3.55;3.25;;;;;;;13.67;76.28;100490.59;4919608;28;102612;-62
2021/08/28 02:01:19;;;;;;;5.15;3.22;;;;;;;13.67;76.31;100493.31;4921524;28;98040;-61
2021/08/28 02:03:45;;;;;;;4.90;3.08;;;;;;;13.67;76.41;100493.31;4913929;28;117198;-68
2021/08/28 02:06:18;;;;;;;4.20;3.08;;;;;;;13.63;76.37;100493.06;4902427;28;98744;-67
2021/08/28 02:09:00;;;;;;;3.85;3.08;;;;;;;13.61;76.08;100494.47;4900162;28;117565;-67
2021/08/28 02:11:58;;;;;;;4.30;3.08;;;;;;;13.59;76.28;100493.94;4884251;28;111995;-64
2021/08/28 02:14:40;;;;;;;3.55;3.22;;;;;;;13.59;76.34;100493.94;4901750;28;97916;-62
2021/08/28 02:17:07;;;;;;;4.68;3.40;;;;;;;13.59;76.45;100500.16;4903647;28;97992;-68
2021/08/28 02:19:34;;;;;;;3.72;2.78;;;;;;;13.59;76.20;100502.06;4922478;28;98065;-62
2021/08/28 02:22:06;;;;;;;4.97;3.08;;;;;;;13.57;76.42;100494.22;4885028;28;103172;-62
2021/08/28 02:24:32;;;;;;;5.75;3.55;;;;;;;13.57;76.29;100502.34;4885227;28;97885;-67
2021/08/28 02:27:16;;;;;;;4.15;2.97;;;;;;;13.54;76.06;100496.72;4918082;28;127552;-68
2021/08/28 02:29:47;;;;;;;3.63;2.90;;;;;;;13.54;76.20;100500.22;4901295;28;110957;-61
2021/08/28 02:32:14;;;;;;;4.80;3.30;;;;;;;13.55;76.22;100498.31;4895753;28;98422;-68
2021/08/28 02:34:40;;;;;;;4.35;2.88;;;;;;;13.55;76.41;100495.59;4868875;28;98175;-67
2021/08/28 02:37:06;;;;;;;3.67;3.10;;;;;;;13.55;76.28;100498.31;4881707;28;128478;-62
2021/08/28 02:39:32;;;;;;;3.97;3.00;;;;;;;13.54;76.14;100499.41;4882430;28;128342;-61
2021/08/28 02:41:58;;;;;;;3.10;2.70;;;;;;;13.54;76.36;100499.41;4871611;28;98220;-67
2021/08/28 02:44:25;;;;;;;3.78;2.58;;;;;;;13.52;76.12;100486.16;4887092;28;98267;-62
2021/08/28 02:46:53;;;;;;;4.78;2.72;;;;;;;13.52;76.51;100497.00;4902494;28;98956;-62
2021/08/28 02:49:20;;;;;;;3.63;2.70;;;;;;;13.51;76.40;100496.16;4902884;28;98156;-67
2021/08/28 02:51:46;;;;;;;3.22;2.47;;;;;;;13.51;76.57;100503.50;4918308;28;114558;-67
2021/08/28 02:54:12;;;;;;;4.65;2.97;;;;;;;13.51;76.30;100507.00;4919054;28;117534;-61
2021/08/28 02:56:39;;;;;;;3.33;2.50;;;;;;;13.51;76.04;100501.59;4886318;28;100284;-68
2021/08/28 02:59:05;;;;;;;2.95;2.30;;;;;;;13.53;76.30;100505.94;4902914;28;108667;-68
2021/08/28 03:01:31;;;;;;;3.80;2.42;;;;;;;13.53;76.06;100508.63;4905710;28;127289;-62
2021/08/28 03:03:57;;;;;;;4.75;3.05;;;;;;;13.53;76.44;100504.03;4917570;28;117677;-68
2021/08/28 03:06:29;;;;;;;5.88;2.95;;;;;;;13.50;76.11;100512.72;4919095;28;98663;-68
2021/08/28 03:08:56;;;;;;;3.63;2.70;;;;;;;13.51;76.23;100506.19;4920865;28;98320;-67
2021/08/28 03:11:22;;;;;;;4.57;2.92;;;;;;;13.51;76.87;100508.91;4917155;28;98867;-67
2021/08/28 03:13:48;;;;;;;3.20;2.33;;;;;;;13.51;76.67;100508.91;4916304;28;117664;-61
2021/08/28 03:16:15;;;;;;;4.63;2.78;;;;;;;13.50;76.39;100508.09;4917267;28;121539;-67
2021/08/28 03:18:42;;;;;;;3.88;2.22;;;;;;;13.50;76.30;100504.59;4919190;28;98691;-68
2021/08/28 03:21:08;;;;;;;4.70;2.38;;;;;;;13.49;76.33;100511.91;4902336;28;97939;-62
2021/08/28 03:23:34;;;;;;;4.07;2.63;;;;;;;13.49;76.43;100502.97;4886412;28;97854;-68
2021/08/28 03:26:00;;;;;;;5.03;2.50;;;;;;;13.49;76.57;100508.41;4900020;28;128125;-62
2021/08/28 03:28:27;;;;;;;2.53;2.30;;;;;;;13.49;76.42;100509.19;4896273;28;101667;-67
2021/08/28 03:30:53;;;;;;;4.78;2.70;;;;;;;13.49;76.14;100509.19;4899391;28;101812;-61
2021/08/28 03:33:19;;;;;;;2.95;2.30;;;;;;;13.51;76.51;100508.91;4902104;28;97960;-67
2021/08/28 03:35:47;;;;;;;2.80;2.60;;;;;;;13.50;76.44;100505.41;4870236;28;110589;-61
2021/08/28 03:38:13;;;;;;;3.60;2.75;;;;;;;13.51;76.70;100509.72;4902377;28;98437;-68
2021/08/28 03:40:39;;;;;;;3.63;3.20;;;;;;;13.53;76.51;100506.72;4904206;28;97731;-68
2021/08/28 03:43:06;;;;;;;4.10;3.20;;;;;;;13.53;76.77;100514.84;4921542;28;117853;-62
2021/08/28 03:45:32;;;;;;;5.75;3.30;;;;;;;13.54;76.73;100516.47;4917727;28;98191;-62
2021/08/28 03:47:58;;;;;;;5.70;3.92;;;;;;;13.54;76.83;100508.34;4920281;28;127967;-67
2021/08/28 03:50:24;;;;;;;6.07;4.43;;;;;;;13.55;76.84;100504.53;4920633;28;126586;-67
2021/08/28 03:52:50;;;;;;;6.80;5.47;;;;;;;13.55;76.75;100501.81;4920272;28;118668;-67
2021/08/28 03:55:16;;;;;;;5.45;4.95;;;;;;;13.59;76.70;100505.56;4918849;28;127456;-61
2021/08/28 03:57:42;;;;;;;5.95;5.22;;;;;;;13.66;76.93;100503.34;4922351;28;121202;-61
2021/08/28 04:00:09;;;;;;;5.88;5.32;;;;;;;13.74;76.46;100500.00;4920363;28;128028;-61
2021/08/28 04:02:35;;;;;;;5.72;5.15;;;;;;;13.79;76.29;100501.84;4903455;28;103741;-67
2021/08/28 04:05:01;;;;;;;6.07;5.32;;;;;;;13.88;76.73;100504.75;4903469;28;126856;-68
2021/08/28 04:07:27;;;;;;;6.93;5.28;;;;;;;13.92;76.44;100503.06;4903282;28;127178;-61
2021/08/28 04:09:53;;;;;;;6.97;6.00;;;;;;;13.94;76.02;100498.16;4913287;28;97659;-67
2021/08/28 04:12:19;;;;;;;8.65;6.10;;;;;;;13.99;76.26;100509.78;4918887;28;116677;-63
2021/08/28 04:14:45;;;;;;;7.90;5.63;;;;;;;14.03;75.99;100511.88;4903247;28;127238;-61
2021/08/28 04:17:12;;;;;;;7.13;6.43;;;;;;;14.06;76.26;100511.31;4903576;28;99713;-63
2021/08/28 04:19:38;;;;;;;6.85;6.13;;;;;;;14.08;76.29;100512.63;4901275;28;121636;-68
2021/08/28 04:22:04;;;;;;;7.72;6.22;;;;;;;14.10;75.84;100517.75;4901716;28;97938;-61
2021/08/28 04:24:30;;;;;;;6.90;6.30;;;;;;;14.13;76.28;100522.59;4903366;28;127948;-61
2021/08/28 04:26:56;;;;;;;9.07;7.07;;;;;;;14.15;76.32;100525.84;4902743;28;128051;-61
2021/08/28 04:29:22;;;;;;;8.73;6.70;;;;;;;14.16;75.82;100519.31;4903223;28;115137;-61
2021/08/28 04:31:48;;;;;;;9.02;6.90;;;;;;;14.18;75.82;100522.53;4886040;28;97869;-61
2021/08/28 04:34:14;;;;;;;8.20;7.40;;;;;;;14.19;75.87;100519.56;4902774;28;125087;-67
2021/08/28 04:36:41;;;;;;;9.73;8.07;;;;;;;14.19;75.73;100516.84;4902967;28;128363;-61
2021/08/28 04:39:07;;;;;;;9.63;8.52;;;;;;;14.21;75.92;100520.06;4919103;28;98527;-67
2021/08/28 04:41:33;;;;;;;9.35;8.35;;;;;;;14.24;75.74;100510.53;4920937;28;118091;-61
2021/08/28 04:43:59;;;;;;;10.55;9.52;;;;;;;14.28;75.83;100514.28;4921984;28;113583;-61
2021/08/28 04:46:25;;;;;;;12.35;10.77;;;;;;;14.33;75.25;100511.50;4922209;28;98512;-68
2021/08/28 04:48:51;;;;;;;10.73;9.65;;;;;;;14.35;75.71;100513.94;4922101;28;126783;-68
2021/08/28 04:51:17;;;;;;;11.43;9.63;;;;;;;14.38;75.64;100514.16;4904909;28;116448;-68
2021/08/28 04:53:43;;;;;;;11.00;9.90;;;;;;;14.40;75.32;100522.00;4905823;28;128032;-62
2021/08/28 04:56:09;;;;;;;12.40;11.20;;;;;;;14.43;75.49;100518.72;4906044;28;126761;-61
2021/08/28 04:58:35;;;;;;;12.88;11.57;;;;;;;14.46;75.24;100515.41;4884391;28;126655;-68
2021/08/28 05:01:01;;;;;;;12.75;11.38;;;;;;;14.49;75.19;100521.06;4893271;28;116257;-68
2021/08/28 05:03:27;;;;;;;14.85;13.27;;;;;;;14.50;75.03;100516.47;4918888;28;115577;-62
2021/08/28 05:05:54;;;;;;;15.15;13.55;;;;;;;14.53;75.76;100525.94;4899920;28;126935;-67
2021/08/28 05:08:21;;;;;;;15.95;13.23;;;;;;;14.53;75.40;100523.22;4890167;28;98263;-62
2021/08/28 05:10:48;;;;;;;16.42;12.90;;;;;;;14.53;74.78;100528.63;4884433;28;116243;-68
2021/08/28 05:13:14;;;;;;;14.50;13.00;;;;;;;14.55;75.07;100534.59;4893258;28;119706;-67
2021/08/28 05:15:40;;;;;;;14.40;13.00;;;;;;;14.54;75.09;100538.38;4913619;28;115704;-63
2021/08/28 05:18:06;;;;;;;15.40;13.00;;;;;;;14.55;75.32;100534.59;4901577;28;97831;-67
2021/08/28 05:20:33;;;;;;;15.15;13.18;;;;;;;14.57;75.15;100537.81;4907555;28;118632;-67
2021/08/28 05:22:59;;;;;;;14.00;12.60;;;;;;;14.58;75.40;100532.09;4920017;28;108186;-67
2021/08/28 05:25:25;;;;;;;14.40;13.00;;;;;;;14.59;75.44;100533.72;4905281;28;99245;-67
2021/08/28 05:27:52;;;;;;;13.88;12.43;;;;;;;14.63;75.21;100540.16;4899296;28;98219;-61
2021/08/28 05:30:18;;;;;;;13.25;11.95;;;;;;;14.67;75.25;100543.91;4899777;28;109062;-61
2021/08/28 05:32:44;;;;;;;13.50;12.10;;;;;;;14.72;75.63;100538.41;4898768;28;98316;-61
2021/08/28 05:35:11;;;;;;;12.38;11.15;;;;;;;14.71;75.21;100536.78;4899291;28;104105;-67
2021/08/28 05:37:37;;;;;;;12.75;11.52;;;;;;;14.73;75.10;100545.44;4899332;28;97888;-62
2021/08/28 05:40:07;;;;;;;11.80;10.60;;;;;;;14.73;75.23;100548.16;4899458;28;97795;-62
2021/08/28 05:42:34;;;;;;;11.50;10.40;;;;;;;14.72;74.77;100551.97;4899266;28;98818;-68
2021/08/28 05:45:00;;;;;;;11.88;10.52;;;;;;;14.77;74.97;100550.28;4901323;28;98424;-62
2021/08/28 05:47:26;;;;;;;11.70;10.50;;;;;;;14.78;74.95;100552.72;4898160;28;113214;-68
2021/08/28 05:49:52;;;;;;;11.63;10.52;;;;;;;14.79;74.96;100548.09;4898808;28;117297;-62
2021/08/28 05:52:18;;;;;;;11.65;10.55;;;;;;;14.79;74.70;100550.81;4896885;28;128094;-62
2021/08/28 05:54:44;;;;;;;11.70;10.60;;;;;;;14.78;74.96;100554.63;4898318;28;127499;-68
2021/08/28 05:57:11;;;;;;;12.05;10.00;;;;;;;14.75;74.62;100563.34;4898294;28;126152;-67
2021/08/28 05:59:37;;;;;;;11.25;10.15;;;;;;;14.72;74.48;100565.53;4896564;28;117867;-68
2021/08/28 06:02:03;;;;;;;12.13;10.13;;;;;;;14.76;74.78;100564.94;4898000;28;127436;-62
2021/08/28 06:04:29;;;;;;;11.82;10.63;;;;;;;14.80;74.53;100563.25;4899019;28;127276;-68
2021/08/28 06:06:55;;;;;;;11.07;9.98;;;;;;;14.87;74.48;100558.28;4903101;28;97911;-62
2021/08/28 06:09:21;;;;;;;10.45;9.45;;;;;;;15.00;74.28;100554.81;4898379;28;118101;-67
2021/08/28 06:11:47;;;;;;;10.27;9.27;;;;;;;15.17;73.79;100559.75;4898808;28;127104;-66
2021/08/28 06:14:13;;;;;;;10.60;9.07;;;;;;;15.30;73.87;100563.59;4899660;28;128172;-61
2021/08/28 06:16:39;;;;;;;10.23;9.18;;;;;;;15.36;73.96;100562.41;4903483;28;127857;-67
2021/08/28 06:19:05;;;;;;;10.57;9.48;;;;;;;15.40;73.48;100564.22;4898381;28;117671;-68
2021/08/28 06:21:33;;;;;;;10.50;9.55;;;;;;;15.42;73.77;100556.59;4898610;28;98316;-67
2021/08/28 06:24:00;;;;;;;12.82;10.98;;;;;;;15.48;73.23;100554.59;4899348;28;98944;-62
2021/08/28 06:26:26;;;;;;;11.93;10.82;;;;;;;15.51;73.20;100559.44;4899033;28;98117;-67
2021/08/28 06:28:52;;;;;;;11.50;10.48;;;;;;;15.50;73.31;100557.03;4901096;28;107032;-68
2021/08/28 06:31:18;;;;;;;11.32;10.20;;;;;;;15.46;73.12;100554.09;4908371;28;98241;-68
2021/08/28 06:33:44;;;;;;;11.63;10.50;;;;;;;15.46;73.90;100556.81;4904349;28;128356;-67
2021/08/28 06:36:10;;;;;;;11.20;10.18;;;;;;;15.42;73.66;100548.44;4896702;28;127016;-62
2021/08/28 06:38:36;;;;;;;11.55;10.45;;;;;;;15.36;73.49;100551.53;4899404;28;98108;-62
2021/08/28 06:41:02;;;;;;;12.25;11.05;;;;;;;15.31;73.61;100551.63;4898327;28;126775;-62
2021/08/28 06:43:30;;;;;;;11.68;10.48;;;;;;;15.22;74.05;100554.22;4895388;28;98494;-61
2021/08/28 06:45:56;;;;;;;13.82;11.70;;;;;;;15.14;74.51;100561.13;4892078;28;98014;-67
2021/08/28 06:48:22;;;;;;;13.48;12.07;;;;;;;15.07;74.64;100557.19;4897828;28;117811;-61
2021/08/28 06:50:48;;;;;;;16.02;12.60;;;;;;;14.99;74.57;100569.50;4897464;28;128148;-67
2021/08/28 06:53:17;;;;;;;12.85;11.52;;;;;;;14.90;74.87;100563.94;4897338;28;116380;-67
2021/08/28 06:55:43;;;;;;;11.88;10.70;;;;;;;14.89;75.15;100572.34;4900108;28;101384;-67
2021/08/28 06:58:09;;;;;;;11.30;10.20;;;;;;;14.90;74.57;100566.66;4897935;28;109152;-67
2021/08/28 07:00:35;;;;;;;12.07;10.75;;;;;;;15.02;74.65;100568.91;4898633;28;117804;-66
2021/08/28 07:03:01;;;;;;;12.82;11.48;;;;;;;15.09;74.37;100569.38;4897619;28;126790;-67
2021/08/28 07:05:27;;;;;;;12.02;10.82;;;;;;;15.08;74.85;100567.72;4895384;28;111571;-66
2021/08/28 07:07:53;;;;;;;11.82;10.73;;;;;;;15.06;74.65;100566.44;4896963;28;108889;-62
2021/08/28 07:10:20;;;;;;;12.07;10.98;;;;;;;15.08;74.46;100566.91;4907287;28;127032;-62
2021/08/28 07:12:46;;;;;;;11.63;10.57;;;;;;;15.04;74.26;100568.63;4900968;28;98563;-62
2021/08/28 07:15:12;;;;;;;10.27;9.38;;;;;;;15.03;75.02;100569.72;4904890;28;98123;-62
2021/08/28 07:17:38;;;;;;;11.00;9.95;;;;;;;15.04;74.85;100574.03;4902571;28;97914;-62
2021/08/28 07:20:05;;;;;;;9.85;8.75;;;;;;;15.06;74.67;100571.84;4900302;28;121238;-67
2021/08/28 07:22:31;;;;;;;8.70;7.80;;;;;;;15.10;74.62;100575.59;4899440;28;98440;-67
2021/08/28 07:24:59;;;;;;;8.35;7.57;;;;;;;15.09;74.26;100573.97;4900957;28;127444;-62
2021/08/28 07:27:25;;;;;;;7.68;6.97;;;;;;;15.07;75.40;100576.97;4901265;28;97917;-64
2021/08/28 07:29:51;;;;;;;7.30;6.60;;;;;;;15.06;74.34;100574.56;4902026;28;99153;-67
2021/08/28 07:32:18;;;;;;;8.10;7.40;;;;;;;15.06;74.27;100583.50;4901599;28;98430;-62
2021/08/28 07:34:44;;;;;;;8.43;7.65;;;;;;;15.05;74.54;100578.38;4900815;28;115000;-62
2021/08/28 07:37:10;;;;;;;8.98;8.18;;;;;;;15.10;74.66;100576.41;4905258;28;98110;-62
2021/08/28 07:39:36;;;;;;;8.77;7.57;;;;;;;15.19;74.20;100579.25;4905565;28;126826;-62
2021/08/28 07:42:03;;;;;;;8.65;7.90;;;;;;;15.23;74.36;100577.56;4907345;28;128412;-67
2021/08/28 07:44:29;;;;;;;8.80;7.88;;;;;;;15.27;74.46;100583.19;4908235;28;127745;-67
2021/08/28 07:46:55;;;;;;;12.38;9.55;;;;;;;15.29;74.76;100581.81;4904762;28;110354;-67
2021/08/28 07:49:22;;;;;;;56.75;43.95;;;;;;;15.34;74.48;100575.50;4900880;28;116162;-62
2021/08/28 07:51:48;;;;;;;68.65;49.45;;;;;;;15.36;74.73;100581.41;4901382;28;127684;-62
2021/08/28 07:54:14;;;;;;;35.90;28.98;;;;;;;15.37;74.30;100581.13;4883827;28;122594;-67
2021/08/28 07:56:40;;;;;;;57.88;46.65;;;;;;;15.39;74.43;100587.06;4901327;28;118900;-67
2021/08/28 07:59:06;;;;;;;46.10;38.63;;;;;;;15.42;74.52;100583.75;4882641;28;128478;-62
2021/08/28 08:01:32;;;;;;;21.27;18.13;;;;;;;15.56;74.20;100589.25;4898463;28;127453;-63
2021/08/28 08:03:58;;;;;;;21.35;19.15;;;;;;;15.78;73.91;100574.22;4904483;28;127697;-63
2021/08/28 08:06:24;;;;;;;18.42;16.52;;;;;;;15.91;73.17;100581.59;4901728;28;97984;-63
2021/08/28 08:08:50;;;;;;;18.23;16.27;;;;;;;15.95;73.44;100585.31;4900606;28;128059;-67
2021/08/28 08:11:17;;;;;;;20.52;18.33;;;;;;;15.96;73.48;100595.09;4901396;28;127334;-67
2021/08/28 08:13:43;;;;;;;15.27;13.70;;;;;;;15.97;73.51;100582.31;4903418;28;97920;-67
2021/08/28 08:16:10;;;;;;;14.95;13.45;;;;;;;16.02;72.88;100588.44;4898634;28;116315;-67
2021/08/28 08:18:36;;;;;;;13.65;12.25;;;;;;;16.11;73.23;100588.56;4900602;28;98504;-62
2021/08/28 08:21:02;;;;;;;15.73;13.98;;;;;;;16.14;73.09;100598.84;4898662;28;121939;-63
2021/08/28 08:23:28;;;;;;;14.02;12.63;;;;;;;16.12;72.99;100595.63;4900613;28;104713;-67
2021/08/28 08:25:54;;;;;;;13.95;12.55;;;;;;;16.13;72.86;100592.59;4900350;28;116770;-63
2021/08/28 08:28:20;;;;;;;13.82;12.48;;;;;;;16.19;73.31;100601.44;4899275;28;128149;-67
2021/08/28 08:30:46;;;;;;;14.43;12.90;;;;;;;16.23;73.04;100596.22;4903409;28;126164;-67
2021/08/28 08:33:12;;;;;;;12.48;11.30;;;;;;;16.25;72.94;100596.72;4899322;28;127638;-67
2021/08/28 08:35:38;;;;;;;13.05;11.68;;;;;;;16.37;72.43;100588.88;4900130;28;115739;-67
2021/08/28 08:38:05;;;;;;;12.25;11.10;;;;;;;16.47;71.29;100596.03;4899236;28;127552;-67
2021/08/28 08:40:31;;;;;;;14.25;12.77;;;;;;;16.50;71.57;100592.69;4901853;28;98288;-63
2021/08/28 08:42:59;;;;;;;13.05;11.85;;;;;;;16.40;72.39;100589.06;4900526;28;98324;-63
2021/08/28 08:45:26;;;;;;;13.27;11.95;;;;;;;16.34;72.53;100600.34;4883200;28;104161;-62
2021/08/28 08:47:52;;;;;;;12.60;11.35;;;;;;;16.24;72.57;100600.56;4900308;28;98531;-67
2021/08/28 08:50:20;;;;;;;16.35;12.70;;;;;;;16.18;72.91;100605.28;4909118;28;128264;-62
2021/08/28 08:52:51;;;;;;;12.98;11.68;;;;;;;16.13;73.03;100599.94;4903539;28;98102;-62
2021/08/28 08:55:17;;;;;;;14.57;13.07;;;;;;;16.18;72.82;100597.13;4899844;28;105595;-62
2021/08/28 08:57:43;;;;;;;14.10;12.73;;;;;;;16.25;73.22;100599.44;4881054;28;128104;-67
2021/08/28 09:00:10;;;;;;;14.32;12.98;;;;;;;16.28;73.12;100601.56;4898478;28;128429;-67
2021/08/28 09:02:37;;;;;;;13.40;12.00;;;;;;;16.29;73.12;100601.25;4899143;28;109256;-67
2021/08/28 09:05:04;;;;;;;13.80;12.50;;;;;;;16.29;73.20;100597.75;4899531;28;116590;-67
2021/08/28 09:07:30;;;;;;;12.25;10.98;;;;;;;16.23;73.07;100597.03;4899008;28;113307;-67
2021/08/28 09:09:57;;;;;;;11.82;10.35;;;;;;;16.19;73.08;100606.88;4898289;28;99425;-67
2021/08/28 09:12:23;;;;;;;14.13;12.73;;;;;;;16.16;73.16;100608.31;4896850;28;126803;-62
2021/08/28 09:14:58;;;;;;;11.60;10.40;;;;;;;16.18;73.18;100608.00;4882126;28;100471;-62
2021/08/28 09:17:24;;;;;;;12.38;11.13;;;;;;;16.26;72.61;100603.78;4901353;28;102850;-67
2021/08/28 09:19:50;;;;;;;12.68;11.50;;;;;;;16.34;72.69;100613.94;4899289;28;127794;-62
2021/08/28 09:22:26;;;;;;;11.55;10.55;;;;;;;16.34;72.75;100608.50;4900855;28;126435;-67
2021/08/28 09:24:54;;;;;;;12.23;11.00;;;;;;;16.45;72.41;100613.44;4900459;28;97952;-62
2021/08/28 09:27:40;;;;;;;11.60;10.50;;;;;;;16.58;71.86;100611.00;4899598;28;100008;-67
2021/08/28 09:30:32;;;;;;;11.15;10.02;;;;;;;16.55;71.74;100614.38;4900187;28;98714;-68
2021/08/28 09:33:04;;;;;;;11.67;10.57;;;;;;;16.53;71.85;100606.50;4911724;28;98051;-67
2021/08/28 09:35:39;;;;;;;11.93;10.18;;;;;;;16.60;71.62;100608.81;4907036;28;98415;-67
2021/08/28 09:38:10;;;;;;;10.02;9.02;;;;;;;16.67;70.69;100612.72;4898706;28;99041;-62
2021/08/28 09:40:45;;;;;;;10.35;9.43;;;;;;;16.73;70.70;100609.91;4899189;28;121222;-62
2021/08/28 09:43:14;;;;;;;9.77;8.77;;;;;;;16.85;70.13;100610.22;4907209;28;107417;-62
2021/08/28 09:45:40;;;;;;;9.93;8.88;;;;;;;16.96;70.19;100621.69;4903739;28;98032;-62
2021/08/28 09:48:08;;;;;;;9.65;8.60;;;;;;;17.08;69.63;100616.50;4901892;28;98351;-67
2021/08/28 09:50:40;;;;;;;8.57;7.70;;;;;;;17.26;69.23;100620.19;4902584;28;99794;-67
2021/08/28 09:53:12;;;;;;;9.60;8.13;;;;;;;17.28;69.50;100621.47;4899181;28;98195;-67
2021/08/28 09:55:39;;;;;;;;;;;;;;;17.34;69.55;100619.47;4907446;28;98020;-62
2021/08/28 09:58:07;;;;;;;38.85;21.52;;;;;;;17.26;69.63;100617.47;4898939;28;111525;-67
2021/08/28 10:00:35;;;;;;;9.82;8.82;;;;;;;17.24;69.50;100619.69;4900365;28;99273;-67
2021/08/28 10:03:05;;;;;;;10.30;9.20;;;;;;;17.31;69.42;100620.06;4898726;28;99409;-67
2021/08/28 10:05:36;;;;;;;22.48;14.85;;;;;;;17.37;68.89;100614.19;4897746;28;98011;-63
2021/08/28 10:08:07;;;;;;;38.33;20.90;;;;;;;17.56;68.50;100608.53;4899240;28;107590;-67
2021/08/28 10:10:36;;;;;;;13.10;9.85;;;;;;;17.86;67.62;100603.47;4901081;28;98837;-68
2021/08/28 10:13:03;;;;;;;9.38;8.48;;;;;;;18.17;66.66;100610.84;4906021;28;97847;-67
2021/08/28 10:15:31;;;;;;;9.85;8.18;;;;;;;18.18;66.72;100605.06;4900261;28;97972;-67
2021/08/28 10:17:58;;;;;;;10.38;8.00;;;;;;;17.97;66.97;100615.72;4899213;28;117786;-62
2021/08/28 10:20:26;;;;;;;8.80;8.00;;;;;;;17.78;67.26;100615.13;4899923;28;98441;-63
2021/08/28 10:22:54;;;;;;;8.98;8.18;;;;;;;17.77;67.25;100619.78;4896554;28;98461;-68
2021/08/28 10:25:23;;;;;;;12.98;11.68;;;;;;;17.97;66.95;100610.28;4899530;28;97807;-68
2021/08/28 10:27:49;;;;;;;8.73;7.95;;;;;;;18.35;65.71;100613.34;4898087;28;98671;-67
2021/08/28 10:30:17;;;;;;;8.25;7.45;;;;;;;19.09;63.73;100617.97;4906512;28;112855;-67
2021/08/28 10:32:43;;;;;;;7.85;7.15;;;;;;;19.60;62.79;100613.59;4898167;28;98037;-63
2021/08/28 10:35:12;;;;;;;218.15;197.20;;;;;;;19.65;62.67;100620.06;4899563;28;100823;-63
2021/08/28 10:37:38;;;;;;;11.27;10.27;;;;;;;19.68;62.50;100613.97;4898598;28;99351;-67
2021/08/28 10:40:26;;;;;;;9.00;8.20;;;;;;;19.67;63.21;100615.88;4901494;28;126403;-63
2021/08/28 10:42:54;;;;;;;7.03;6.43;;;;;;;19.67;62.14;100615.09;4895955;28;97872;-63
2021/08/28 10:45:32;;;;;;;6.68;5.97;;;;;;;19.66;63.06;100618.97;4897781;28;97930;-68
2021/08/28 10:48:00;;;;;;;6.80;6.10;;;;;;;19.69;62.55;100615.56;4897249;28;112940;-63
2021/08/28 10:50:29;;;;;;;6.65;6.07;;;;;;;19.84;62.55;100617.78;4898866;28;98545;-68
2021/08/28 10:52:56;;;;;;;5.55;5.05;;;;;;;20.49;60.68;100613.06;4881169;28;98018;-68
2021/08/28 10:55:22;;;;;;;6.32;5.70;;;;;;;22.78;55.10;100610.97;4895864;28;117584;-63
2021/08/28 10:57:52;;;;;;;4.90;4.50;;;;;;;24.09;51.72;100618.59;4878849;28;129035;-63
2021/08/28 11:00:18;;;;;;;5.47;4.90;;;;;;;24.32;51.11;100616.00;4880023;28;117333;-69
2021/08/28 11:02:58;;;;;;;4.60;4.20;;;;;;;23.65;53.26;100621.34;4896013;28;98033;-68
2021/08/28 11:05:32;;;;;;;7.68;6.35;;;;;;;23.03;52.91;100620.00;4896922;28;98053;-68
2021/08/28 11:08:14;;;;;;;11.07;10.00;;;;;;;22.72;54.11;100609.63;4903325;28;98270;-68
2021/08/28 11:10:40;;;;;;;75.90;69.03;;;;;;;22.47;54.08;100615.09;4898547;28;98513;-67
2021/08/28 11:13:07;;;;;;;11.18;10.18;;;;;;;22.16;55.10;100617.63;4895258;28;114087;-63
2021/08/28 11:15:33;;;;;;;4.82;4.43;;;;;;;22.24;54.02;100611.22;4896969;28;119756;-63